Terminal Aerodrome Forecast
Issued by NWS Springfield, MO

Home | Current Version | Previous Version | Text Only | Print | Product List | Glossary On
Versions: 1 2 3 4 5 6 7 8 9 10 11 12 13 14 15 16 17 18 19 20 21 22 23 24 25 26 27 28 29 30 31 32 33 34 35 36 37 38 39
676
FTUS43 KSGF 200232 AAC
TAFSGF
TAF AMD
KSGF 200232Z 2003/2024 VRB04KT 1SM BR OVC002
      TEMPO 2003/2004 1/2SM FG
     FM200400 15005KT 1 1/2SM BR BKN003
     FM200800 15006KT 1/2SM FG OVC001
     FM201600 15010KT 5SM BR OVC005
     FM201800 18012KT P6SM OVC015
     FM202000 18012KT P6SM SCT250=

USA.gov is the U.S. government's official web portal to all federal, state and local government web resources and services.